createdAt,value
2018-02-15T00:00:35.312Z,-2.60
2018-02-15T00:01:37.961Z,-2.60
2018-02-15T00:02:41.228Z,-2.60
2018-02-15T00:03:43.767Z,-2.60
2018-02-15T00:04:47.038Z,-2.50
2018-02-15T00:05:49.548Z,-2.50
2018-02-15T00:06:52.850Z,-2.60
2018-02-15T00:07:55.332Z,-2.60
2018-02-15T00:08:58.011Z,-2.60
2018-02-15T00:10:00.604Z,-2.50
2018-02-15T00:11:03.106Z,-2.60
2018-02-15T00:12:06.411Z,-2.60
2018-02-15T00:13:09.684Z,-2.60
2018-02-15T00:14:12.966Z,-2.60
2018-02-15T00:15:15.970Z,-2.70
2018-02-15T00:16:19.250Z,-2.60
2018-02-15T00:17:21.864Z,-2.60
2018-02-15T00:18:24.391Z,-2.60
2018-02-15T00:19:26.885Z,-2.60
2018-02-15T00:20:30.143Z,-2.60
2018-02-15T00:21:32.649Z,-2.60
2018-02-15T00:22:35.940Z,-2.60
2018-02-15T00:23:38.429Z,-2.60
2018-02-15T00:24:41.703Z,-2.60
2018-02-15T00:25:44.204Z,-2.60
2018-02-15T00:26:46.722Z,-2.60
2018-02-15T00:27:50.031Z,-2.60
2018-02-15T00:28:52.528Z,-2.60
2018-02-15T00:29:55.040Z,-2.60
2018-02-15T00:30:57.549Z,-2.60
2018-02-15T00:32:00.075Z,-2.60
2018-02-15T00:33:02.758Z,-2.50
2018-02-15T00:34:05.271Z,-2.50
2018-02-15T00:35:08.222Z,-2.50
2018-02-15T00:36:10.748Z,-2.40
2018-02-15T00:37:13.229Z,-2.40
2018-02-15T00:38:15.720Z,-2.40
2018-02-15T00:39:19.017Z,-2.40
2018-02-15T00:40:21.516Z,-2.40
2018-02-15T00:41:24.041Z,-2.40
2018-02-15T00:42:26.561Z,-2.30
2018-02-15T00:43:29.093Z,-2.30
2018-02-15T00:44:31.595Z,-2.30
2018-02-15T00:45:34.910Z,-2.30
2018-02-15T00:46:37.498Z,-2.30
2018-02-15T00:47:40.042Z,-2.30
2018-02-15T00:48:43.214Z,-2.30
2018-02-15T00:49:47.253Z,-2.40
2018-02-15T00:50:49.751Z,-2.40
2018-02-15T00:51:52.230Z,-2.40
2018-02-15T00:52:54.774Z,-2.40
2018-02-15T00:53:58.037Z,-2.40
2018-02-15T00:55:00.563Z,-2.50
2018-02-15T00:56:03.107Z,-2.50
2018-02-15T00:57:05.592Z,-2.40
2018-02-15T00:58:09.113Z,-2.50
2018-02-15T00:59:11.618Z,-2.50
2018-02-15T01:00:14.157Z,-2.50
2018-02-15T01:01:17.471Z,-2.50
2018-02-15T01:02:19.995Z,-2.50
2018-02-15T01:03:22.716Z,-2.40
2018-02-15T01:04:25.265Z,-2.40
2018-02-15T01:05:28.110Z,-2.50
2018-02-15T01:06:30.599Z,-2.40
2018-02-15T01:07:33.166Z,-2.40
2018-02-15T01:08:35.775Z,-2.40
2018-02-15T01:09:38.263Z,-2.40
2018-02-15T01:10:41.552Z,-2.40
2018-02-15T01:11:44.066Z,-2.40
2018-02-15T01:12:46.569Z,-2.40
2018-02-15T01:13:49.103Z,-2.40
2018-02-15T01:14:51.614Z,-2.40
2018-02-15T01:15:54.106Z,-2.40
2018-02-15T01:16:57.377Z,-2.30
2018-02-15T01:18:00.650Z,-2.40
2018-02-15T01:19:03.169Z,-2.40
2018-02-15T01:20:05.731Z,-2.30
2018-02-15T01:21:08.233Z,-2.30
2018-02-15T01:22:10.768Z,-2.30
2018-02-15T01:23:13.300Z,-2.30
2018-02-15T01:24:16.618Z,-2.30
2018-02-15T01:25:19.217Z,-2.30
2018-02-15T01:26:22.473Z,-2.30
2018-02-15T01:27:25.758Z,-2.30
2018-02-15T01:28:28.259Z,-2.30
2018-02-15T01:29:30.746Z,-2.30
2018-02-15T01:30:33.251Z,-2.30
2018-02-15T01:31:36.511Z,-2.40
2018-02-15T01:32:39.017Z,-2.40
2018-02-15T01:33:41.553Z,-2.40
2018-02-15T01:34:45.553Z,-2.40
2018-02-15T01:35:48.036Z,-2.40
2018-02-15T01:36:50.527Z,-2.40
2018-02-15T01:37:53.040Z,-2.40
2018-02-15T01:38:55.570Z,-2.40
2018-02-15T01:39:58.349Z,-2.40
2018-02-15T01:41:00.852Z,-2.40
2018-02-15T01:42:03.353Z,-2.40
2018-02-15T01:43:05.852Z,-2.40
2018-02-15T01:44:08.362Z,-2.40
2018-02-15T01:45:11.638Z,-2.40
2018-02-15T01:46:14.130Z,-2.40
2018-02-15T01:47:17.394Z,-2.40
2018-02-15T01:48:19.975Z,-2.40
2018-02-15T01:49:22.475Z,-2.40
2018-02-15T01:50:24.965Z,-2.40
2018-02-15T01:51:28.245Z,-2.50
2018-02-15T01:52:30.736Z,-2.50
2018-02-15T01:53:33.233Z,-2.50
2018-02-15T01:54:35.737Z,-2.50
2018-02-15T01:55:38.241Z,-2.50
2018-02-15T01:56:40.781Z,-2.50
2018-02-15T01:57:43.280Z,-2.50
2018-02-15T01:58:46.442Z,-2.50
2018-02-15T01:59:48.944Z,-2.60
2018-02-15T02:00:51.438Z,-2.60
2018-02-15T02:01:54.739Z,-2.60
2018-02-15T02:02:58.072Z,-2.60
2018-02-15T02:04:00.608Z,-2.60
2018-02-15T02:05:03.126Z,-2.60
2018-02-15T02:06:05.640Z,-2.60
2018-02-15T02:07:08.166Z,-2.60
2018-02-15T02:08:10.659Z,-2.50
2018-02-15T02:09:13.955Z,-2.60
2018-02-15T02:10:17.454Z,-2.60
2018-02-15T02:11:20.850Z,-2.60
2018-02-15T02:12:23.361Z,-2.60
2018-02-15T02:13:25.853Z,-2.60
2018-02-15T02:14:29.134Z,-2.60
2018-02-15T02:15:31.622Z,-2.60
2018-02-15T02:16:34.921Z,-2.70
2018-02-15T02:17:37.447Z,-2.70
2018-02-15T02:18:39.946Z,-2.70
2018-02-15T02:19:42.499Z,-2.70
2018-02-15T02:20:45.730Z,-2.70
2018-02-15T02:21:48.251Z,-2.70
2018-02-15T02:22:50.777Z,-2.70
2018-02-15T02:23:53.270Z,-2.70
2018-02-15T02:24:56.545Z,-2.80
2018-02-15T02:25:59.053Z,-2.80
2018-02-15T02:27:01.577Z,-2.80
2018-02-15T02:28:04.109Z,-2.80
2018-02-15T02:29:06.623Z,-2.80
2018-02-15T02:30:09.152Z,-2.80
2018-02-15T02:31:11.655Z,-2.80
2018-02-15T02:32:14.910Z,-2.80
2018-02-15T02:33:17.468Z,-2.90
2018-02-15T02:34:20.013Z,-2.80
2018-02-15T02:35:22.530Z,-2.80
2018-02-15T02:36:25.019Z,-2.80
2018-02-15T02:37:27.928Z,-2.80
2018-02-15T02:38:31.229Z,-2.80
2018-02-15T02:39:33.730Z,-2.80
2018-02-15T02:40:36.281Z,-2.80
2018-02-15T02:41:38.777Z,-2.80
2018-02-15T02:42:41.294Z,-2.80
2018-02-15T02:43:43.806Z,-2.80
2018-02-15T02:44:47.090Z,-2.80
2018-02-15T02:45:50.443Z,-2.80
2018-02-15T02:46:52.962Z,-2.70
2018-02-15T02:47:55.462Z,-2.70
2018-02-15T02:48:57.970Z,-2.70
2018-02-15T02:50:02.033Z,-2.60
2018-02-15T02:51:05.336Z,-2.60
2018-02-15T02:52:07.821Z,-2.60
2018-02-15T02:53:10.391Z,-2.50
2018-02-15T02:54:12.913Z,-2.50
2018-02-15T02:55:15.420Z,-2.50
2018-02-15T02:56:18.618Z,-2.60
2018-02-15T02:57:22.005Z,-2.60
2018-02-15T02:58:24.520Z,-2.60
2018-02-15T02:59:27.008Z,-2.60
2018-02-15T03:00:29.506Z,-2.60
2018-02-15T03:01:32.003Z,-2.60
2018-02-15T03:02:34.491Z,-2.60
2018-02-15T03:03:37.803Z,-2.70
2018-02-15T03:04:40.299Z,-2.70
2018-02-15T03:05:42.807Z,-2.60
2018-02-15T03:06:45.364Z,-2.60
2018-02-15T03:07:48.026Z,-2.60
2018-02-15T03:08:51.470Z,-2.70
2018-02-15T03:09:55.489Z,-2.70
2018-02-15T03:10:58.021Z,-2.70
2018-02-15T03:12:00.534Z,-2.70
2018-02-15T03:13:03.032Z,-2.70
2018-02-15T03:14:06.318Z,-2.70
2018-02-15T03:15:08.818Z,-2.70
2018-02-15T03:16:11.314Z,-2.60
2018-02-15T03:17:14.592Z,-2.60
2018-02-15T03:18:17.083Z,-2.60
2018-02-15T03:19:20.451Z,-2.70
2018-02-15T03:20:23.693Z,-2.70
2018-02-15T03:21:26.248Z,-2.70
2018-02-15T03:22:28.775Z,-2.60
2018-02-15T03:23:31.326Z,-2.60
2018-02-15T03:24:33.913Z,-2.70
2018-02-15T03:25:36.568Z,-2.60
2018-02-15T03:26:39.049Z,-2.60
2018-02-15T03:27:42.307Z,-2.60
2018-02-15T03:28:44.832Z,-2.60
2018-02-15T03:29:48.288Z,-2.60
2018-02-15T03:30:50.770Z,-2.70
2018-02-15T03:31:54.018Z,-2.70
2018-02-15T03:32:57.295Z,-2.70
2018-02-15T03:33:59.822Z,-2.70
2018-02-15T03:35:02.458Z,-2.70
2018-02-15T03:36:04.957Z,-2.70
2018-02-15T03:37:07.446Z,-2.60
2018-02-15T03:38:10.701Z,-2.60
2018-02-15T03:39:13.901Z,-2.60
2018-02-15T03:40:16.527Z,-2.60
2018-02-15T03:41:19.029Z,-2.60
2018-02-15T03:42:21.555Z,-2.60
2018-02-15T03:43:24.099Z,-2.60
2018-02-15T03:44:26.624Z,-2.60
2018-02-15T03:45:29.148Z,-2.60
2018-02-15T03:46:31.673Z,-2.60
2018-02-15T03:47:34.170Z,-2.60
2018-02-15T03:48:36.679Z,-2.60
2018-02-15T03:49:39.948Z,-2.50
2018-02-15T03:50:42.474Z,-2.60
2018-02-15T03:51:44.977Z,-2.50
2018-02-15T03:52:48.237Z,-2.50
2018-02-15T03:53:51.515Z,-2.50
2018-02-15T03:54:54.056Z,-2.50
2018-02-15T03:55:56.585Z,-2.50
2018-02-15T03:56:59.169Z,-2.50
2018-02-15T03:58:01.736Z,-2.50
2018-02-15T03:59:05.035Z,-2.50
2018-02-15T04:00:07.538Z,-2.50
2018-02-15T04:01:10.854Z,-2.50
2018-02-15T04:02:13.370Z,-2.50
2018-02-15T04:03:15.873Z,-2.50
2018-02-15T04:04:18.359Z,-2.50
2018-02-15T04:05:21.627Z,-2.50
2018-02-15T04:06:24.151Z,-2.50
2018-02-15T04:07:26.649Z,-2.50
2018-02-15T04:08:29.942Z,-2.60
2018-02-15T04:09:32.435Z,-2.60
2018-02-15T04:10:34.942Z,-2.60
2018-02-15T04:11:38.242Z,-2.60
2018-02-15T04:12:40.876Z,-2.60
2018-02-15T04:13:43.473Z,-2.50
2018-02-15T04:14:46.022Z,-2.50
2018-02-15T04:15:48.525Z,-2.50
2018-02-15T04:16:51.046Z,-2.50
2018-02-15T04:17:53.540Z,-2.60
2018-02-15T04:18:56.325Z,-2.60
2018-02-15T04:19:58.813Z,-2.50
2018-02-15T04:21:02.076Z,-2.50
2018-02-15T04:22:05.356Z,-2.50
2018-02-15T04:23:07.894Z,-2.50
2018-02-15T04:24:10.520Z,-2.50
2018-02-15T04:25:13.108Z,-2.50
2018-02-15T04:26:15.612Z,-2.50
2018-02-15T04:27:18.880Z,-2.50
2018-02-15T04:28:21.393Z,-2.50
2018-02-15T04:29:23.934Z,-2.50
2018-02-15T04:30:26.444Z,-2.50
2018-02-15T04:31:28.959Z,-2.50
2018-02-15T04:32:31.454Z,-2.50
2018-02-15T04:33:35.517Z,-2.50
2018-02-15T04:34:38.111Z,-2.50
2018-02-15T04:35:40.660Z,-2.50
2018-02-15T04:36:43.938Z,-2.50
2018-02-15T04:37:46.604Z,-2.50
2018-02-15T04:38:49.116Z,-2.50
2018-02-15T04:39:52.416Z,-2.40
2018-02-15T04:40:56.079Z,-2.40
2018-02-15T04:41:59.427Z,-2.40
2018-02-15T04:43:03.679Z,-2.40
2018-02-15T04:44:06.242Z,-2.40
2018-02-15T04:45:09.114Z,-2.40
2018-02-15T04:46:12.450Z,-2.40
2018-02-15T04:47:15.036Z,-2.40
2018-02-15T04:48:17.547Z,-2.30
2018-02-15T04:49:20.817Z,-2.30
2018-02-15T04:50:24.452Z,-2.30
2018-02-15T04:51:27.005Z,-2.30
2018-02-15T04:52:29.545Z,-2.30
2018-02-15T04:53:32.053Z,-2.30
2018-02-15T04:54:34.563Z,-2.30
2018-02-15T04:55:37.119Z,-2.30
2018-02-15T04:56:39.606Z,-2.20
2018-02-15T04:57:42.894Z,-2.30
2018-02-15T04:58:45.724Z,-2.30
2018-02-15T04:59:48.233Z,-2.30
2018-02-15T05:00:50.735Z,-2.30
2018-02-15T05:01:54.016Z,-2.40
2018-02-15T05:02:56.535Z,-2.40
2018-02-15T05:03:59.046Z,-2.40
2018-02-15T05:05:01.550Z,-2.40
2018-02-15T05:06:04.925Z,-2.30
2018-02-15T05:07:07.445Z,-2.40
2018-02-15T05:08:10.762Z,-2.40
2018-02-15T05:09:14.826Z,-2.40
2018-02-15T05:10:18.101Z,-2.40
2018-02-15T05:11:21.385Z,-2.30
2018-02-15T05:12:23.886Z,-2.40
2018-02-15T05:13:26.392Z,-2.30
2018-02-15T05:14:28.925Z,-2.30
2018-02-15T05:15:31.417Z,-2.30
2018-02-15T05:16:34.694Z,-2.20
2018-02-15T05:17:37.200Z,-2.30
2018-02-15T05:18:39.703Z,-2.20
2018-02-15T05:19:42.983Z,-2.30
2018-02-15T05:20:45.481Z,-2.30
2018-02-15T05:21:48.037Z,-2.30
2018-02-15T05:22:51.525Z,-2.30
2018-02-15T05:23:54.055Z,-2.30
2018-02-15T05:24:56.685Z,-2.30
2018-02-15T05:25:59.196Z,-2.30
2018-02-15T05:27:02.432Z,-2.30
2018-02-15T05:28:04.924Z,-2.30
2018-02-15T05:29:07.517Z,-2.30
2018-02-15T05:30:10.802Z,-2.20
2018-02-15T05:31:13.329Z,-2.30
2018-02-15T05:32:15.842Z,-2.20
2018-02-15T05:33:18.390Z,-2.20
2018-02-15T05:34:20.935Z,-2.30
2018-02-15T05:35:23.433Z,-2.30
2018-02-15T05:36:25.936Z,-2.20
2018-02-15T05:37:28.433Z,-2.20
2018-02-15T05:38:31.683Z,-2.20
2018-02-15T05:39:34.974Z,-2.30
2018-02-15T05:40:37.489Z,-2.30
2018-02-15T05:41:40.126Z,-2.30
2018-02-15T05:42:42.596Z,-2.30
2018-02-15T05:43:45.105Z,-2.30
2018-02-15T05:44:47.608Z,-2.30
2018-02-15T05:45:50.808Z,-2.30
2018-02-15T05:46:54.079Z,-2.30
2018-02-15T05:47:57.428Z,-2.30
2018-02-15T05:48:59.909Z,-2.30
2018-02-15T05:50:03.200Z,-2.30
2018-02-15T05:51:05.689Z,-2.30
2018-02-15T05:52:08.994Z,-2.30
2018-02-15T05:53:11.496Z,-2.30
2018-02-15T05:54:14.010Z,-2.30
2018-02-15T05:55:16.554Z,-2.30
2018-02-15T05:56:19.090Z,-2.30
2018-02-15T05:57:21.721Z,-2.20
2018-02-15T05:58:25.747Z,-2.30
2018-02-15T05:59:28.899Z,-2.30
2018-02-15T06:00:31.424Z,-2.20
2018-02-15T06:01:33.951Z,-2.30
2018-02-15T06:02:36.478Z,-2.30
2018-02-15T06:03:38.997Z,-2.30
2018-02-15T06:04:41.527Z,-2.30
2018-02-15T06:05:44.050Z,-2.30
2018-02-15T06:06:46.552Z,-2.20
2018-02-15T06:07:49.167Z,-2.20
2018-02-15T06:08:52.453Z,-2.30
2018-02-15T06:09:56.355Z,-2.30
2018-02-15T06:11:00.371Z,-2.30
2018-02-15T06:12:02.858Z,-2.30
2018-02-15T06:13:06.237Z,-2.30
2018-02-15T06:14:08.754Z,-2.30
2018-02-15T06:15:11.257Z,-2.30
2018-02-15T06:16:14.508Z,-2.30
2018-02-15T06:17:16.997Z,-2.30
2018-02-15T06:18:20.682Z,-2.30
2018-02-15T06:19:23.164Z,-2.30
2018-02-15T06:20:25.804Z,-2.30
2018-02-15T06:21:29.208Z,-2.30
2018-02-15T06:22:31.873Z,-2.30
2018-02-15T06:23:34.535Z,-2.30
2018-02-15T06:24:37.922Z,-2.30
2018-02-15T06:25:40.592Z,-2.30
2018-02-15T06:26:43.309Z,-2.30
2018-02-15T06:27:47.483Z,-2.30
2018-02-15T06:28:50.734Z,-2.30
2018-02-15T06:29:54.146Z,-2.30
2018-02-15T06:30:56.780Z,-2.30
2018-02-15T06:31:59.397Z,-2.30
2018-02-15T06:33:02.097Z,-2.30
2018-02-15T06:34:04.765Z,-2.30
2018-02-15T06:35:07.391Z,-2.30
2018-02-15T06:36:10.128Z,-2.30
2018-02-15T06:37:13.589Z,-2.30
2018-02-15T06:38:16.215Z,-2.30
2018-02-15T06:39:19.697Z,-2.30
2018-02-15T06:40:22.352Z,-2.30
2018-02-15T06:41:24.981Z,-2.30
2018-02-15T06:42:28.225Z,-2.30
2018-02-15T06:43:30.861Z,-2.30
2018-02-15T06:44:33.506Z,-2.30
2018-02-15T06:45:36.148Z,-2.30
2018-02-15T06:46:38.781Z,-2.30
2018-02-15T06:47:42.201Z,-2.30
2018-02-15T06:48:44.850Z,-2.30
2018-02-15T06:49:49.116Z,-2.30
2018-02-15T06:50:51.750Z,-2.30
2018-02-15T06:51:54.411Z,-2.20
2018-02-15T06:52:57.068Z,-2.20
2018-02-15T06:53:59.724Z,-2.20
2018-02-15T06:55:02.364Z,-2.20
2018-02-15T06:56:05.404Z,-2.30
2018-02-15T06:57:08.048Z,-2.20
2018-02-15T06:58:11.460Z,-2.30
2018-02-15T06:59:14.830Z,-2.30
2018-02-15T07:00:17.484Z,-2.20
2018-02-15T07:01:20.132Z,-2.20
2018-02-15T07:02:22.785Z,-2.20
2018-02-15T07:03:25.419Z,-2.20
2018-02-15T07:04:28.090Z,-2.20
2018-02-15T07:05:31.515Z,-2.30
2018-02-15T07:06:34.962Z,-2.30
2018-02-15T07:07:37.674Z,-2.30
2018-02-15T07:08:40.316Z,-2.20
2018-02-15T07:09:44.539Z,-2.20
2018-02-15T07:10:47.194Z,-2.20
2018-02-15T07:11:49.812Z,-2.20
2018-02-15T07:12:52.507Z,-2.10
2018-02-15T07:13:55.145Z,-2.10
2018-02-15T07:14:57.769Z,-2.10
2018-02-15T07:16:00.429Z,-2.20
2018-02-15T07:17:03.058Z,-2.20
2018-02-15T07:18:05.709Z,-2.20
2018-02-15T07:19:08.386Z,-2.20
2018-02-15T07:20:11.019Z,-2.20
2018-02-15T07:21:14.426Z,-2.10
2018-02-15T07:22:17.863Z,-2.10
2018-02-15T07:23:20.502Z,-2.10
2018-02-15T07:24:23.889Z,-2.10
2018-02-15T07:25:26.549Z,-2.10
2018-02-15T07:26:29.393Z,-2.10
2018-02-15T07:27:32.057Z,-2.10
2018-02-15T07:28:35.283Z,-2.10
2018-02-15T07:29:38.708Z,-2.00
2018-02-15T07:30:42.100Z,-2.00
2018-02-15T07:31:44.715Z,-2.00
2018-02-15T07:32:48.148Z,-2.00
2018-02-15T07:33:51.559Z,-2.00
2018-02-15T07:34:54.195Z,-2.00
2018-02-15T07:35:56.818Z,-2.00
2018-02-15T07:36:59.468Z,-1.90
2018-02-15T07:38:02.828Z,-1.90
2018-02-15T07:39:06.235Z,-1.90
2018-02-15T07:40:09.753Z,-1.90
2018-02-15T07:41:12.406Z,-1.90
2018-02-15T07:42:15.042Z,-1.90
2018-02-15T07:43:18.296Z,-1.80
2018-02-15T07:44:20.998Z,-1.80
2018-02-15T07:45:23.644Z,-1.80
2018-02-15T07:46:26.288Z,-1.80
2018-02-15T07:47:30.592Z,-1.80
2018-02-15T07:48:33.238Z,-1.80
2018-02-15T07:49:35.913Z,-1.80
2018-02-15T07:50:38.541Z,-1.80
2018-02-15T07:51:42.666Z,-1.70
2018-02-15T07:52:45.338Z,-1.70
2018-02-15T07:53:48.016Z,-1.70
2018-02-15T07:54:50.646Z,-1.70
2018-02-15T07:55:53.272Z,-1.70
2018-02-15T07:56:55.896Z,-1.60
2018-02-15T07:57:58.661Z,-1.60
2018-02-15T07:59:01.331Z,-1.60
2018-02-15T08:00:04.740Z,-1.60
2018-02-15T08:01:07.492Z,-1.60
2018-02-15T08:02:10.113Z,-1.60
2018-02-15T08:03:12.791Z,-1.60
2018-02-15T08:04:15.468Z,-1.60
2018-02-15T08:05:18.869Z,-1.60
2018-02-15T08:06:21.501Z,-1.60
2018-02-15T08:07:24.364Z,-1.60
2018-02-15T08:08:27.010Z,-1.60
2018-02-15T08:09:29.648Z,-1.60
2018-02-15T08:10:33.208Z,-1.60
2018-02-15T08:11:36.599Z,-1.60
2018-02-15T08:12:39.254Z,-1.60
2018-02-15T08:13:41.910Z,-1.50
2018-02-15T08:14:44.576Z,-1.50
2018-02-15T08:15:47.591Z,-1.50
2018-02-15T08:16:50.249Z,-1.50
2018-02-15T08:17:52.888Z,-1.40
2018-02-15T08:18:55.533Z,-1.30
2018-02-15T08:19:58.988Z,-1.40
2018-02-15T08:21:01.724Z,-1.30
2018-02-15T08:22:04.383Z,-1.30
2018-02-15T08:23:07.010Z,-1.30
2018-02-15T08:24:09.656Z,-1.40
2018-02-15T08:25:12.287Z,-1.40
2018-02-15T08:26:14.988Z,-1.40
2018-02-15T08:27:18.386Z,-1.30
2018-02-15T08:28:21.834Z,-1.30
2018-02-15T08:29:24.500Z,-1.30
2018-02-15T08:30:27.991Z,-1.20
2018-02-15T08:31:30.665Z,-1.20
2018-02-15T08:32:34.072Z,-1.20
2018-02-15T08:33:36.712Z,-1.20
2018-02-15T08:34:39.359Z,-1.10
2018-02-15T08:35:41.983Z,-1.00
2018-02-15T08:36:46.026Z,-1.10
2018-02-15T08:37:48.708Z,-1.10
2018-02-15T08:38:52.115Z,-1.20
2018-02-15T08:39:54.735Z,-1.20
2018-02-15T08:40:57.352Z,-1.10
2018-02-15T08:42:00.004Z,-1.10
2018-02-15T08:43:02.652Z,-1.00
2018-02-15T08:44:05.325Z,-1.00
2018-02-15T08:45:08.010Z,-0.90
2018-02-15T08:46:10.644Z,-0.80
2018-02-15T08:47:13.265Z,-0.70
2018-02-15T08:48:15.897Z,-0.60
2018-02-15T08:49:19.326Z,-0.60
2018-02-15T08:50:22.274Z,-0.50
2018-02-15T08:51:24.994Z,-0.60
2018-02-15T08:52:28.380Z,-0.50
2018-02-15T08:53:32.519Z,-0.50
2018-02-15T08:54:35.238Z,-0.40
2018-02-15T08:55:39.372Z,-0.30
2018-02-15T08:56:42.058Z,-0.30
2018-02-15T08:57:45.478Z,-0.40
2018-02-15T08:58:48.785Z,-0.40
2018-02-15T08:59:51.445Z,-0.30
2018-02-15T09:00:54.086Z,-0.30
2018-02-15T09:01:56.718Z,-0.30
2018-02-15T09:02:59.352Z,-0.30
2018-02-15T09:04:02.768Z,-0.30
2018-02-15T09:05:05.420Z,-0.40
2018-02-15T09:06:09.154Z,-0.40
2018-02-15T09:07:11.772Z,-0.40
2018-02-15T09:08:14.400Z,-0.50
2018-02-15T09:09:17.051Z,-0.60
2018-02-15T09:10:20.559Z,-0.60
2018-02-15T09:11:23.735Z,-0.60
2018-02-15T09:12:26.974Z,-0.60
2018-02-15T09:13:31.156Z,-0.60
2018-02-15T09:14:34.698Z,-0.60
2018-02-15T09:15:37.334Z,-0.60
2018-02-15T09:16:39.954Z,-0.60
2018-02-15T09:17:43.160Z,-0.60
2018-02-15T09:18:45.797Z,-0.60
2018-02-15T09:19:48.465Z,-0.60
2018-02-15T09:20:51.886Z,-0.50
2018-02-15T09:21:54.527Z,-0.40
2018-02-15T09:22:58.658Z,-0.50
2018-02-15T09:24:01.292Z,-0.40
2018-02-15T09:25:04.630Z,-0.40
2018-02-15T09:26:07.264Z,-0.40
2018-02-15T09:27:09.897Z,-0.30
2018-02-15T09:28:12.534Z,-0.30
2018-02-15T09:29:15.182Z,-0.20
2018-02-15T09:30:17.807Z,-0.30
2018-02-15T09:31:20.592Z,-0.40
2018-02-15T09:32:23.236Z,-0.50
2018-02-15T09:33:26.743Z,-0.40
2018-02-15T09:34:29.441Z,-0.40
2018-02-15T09:35:32.066Z,-0.30
2018-02-15T09:36:35.071Z,-0.30
2018-02-15T09:37:37.841Z,-0.30
2018-02-15T09:38:41.439Z,-0.20
2018-02-15T09:39:44.943Z,-0.20
2018-02-15T09:40:47.707Z,-0.10
2018-02-15T09:41:50.509Z,0.10
2018-02-15T09:42:53.219Z,0.10
2018-02-15T09:43:56.494Z,0.10
2018-02-15T09:44:59.899Z,0.30
2018-02-15T09:46:02.532Z,0.30
2018-02-15T09:47:05.420Z,0.40
2018-02-15T09:48:08.066Z,0.50
2018-02-15T09:49:10.713Z,0.40
2018-02-15T09:50:13.368Z,0.40
2018-02-15T09:51:16.011Z,0.40
2018-02-15T09:52:19.404Z,0.30
2018-02-15T09:53:22.019Z,0.30
2018-02-15T09:54:24.717Z,0.30
2018-02-15T09:55:28.109Z,0.10
2018-02-15T09:56:30.730Z,0.10
2018-02-15T09:57:33.362Z,0.10
2018-02-15T09:58:35.981Z,0.10
2018-02-15T09:59:39.195Z,0.20
2018-02-15T10:00:43.197Z,0.40
2018-02-15T10:01:45.862Z,0.30
2018-02-15T10:02:49.246Z,0.30
2018-02-15T10:03:51.965Z,0.30
2018-02-15T10:04:55.990Z,0.30
2018-02-15T10:05:58.646Z,0.30
2018-02-15T10:07:01.305Z,0.20
2018-02-15T10:08:04.093Z,0.20
2018-02-15T10:09:07.152Z,0.20
2018-02-15T10:10:09.869Z,0.30
2018-02-15T10:11:14.124Z,0.40
2018-02-15T10:12:16.777Z,0.40
2018-02-15T10:13:20.927Z,0.40
2018-02-15T10:14:25.063Z,0.50
2018-02-15T10:15:27.772Z,0.40
2018-02-15T10:16:31.028Z,0.30
2018-02-15T10:17:33.877Z,0.10
2018-02-15T10:18:36.533Z,0.00
2018-02-15T10:19:39.868Z,0.00
2018-02-15T10:20:42.589Z,0.00
2018-02-15T10:21:46.080Z,-0.20
2018-02-15T10:22:49.161Z,-0.30
2018-02-15T10:23:53.977Z,-0.40
2018-02-15T10:24:57.501Z,-0.40
2018-02-15T10:26:00.822Z,-0.40
2018-02-15T10:27:03.621Z,-0.40
2018-02-15T10:28:06.405Z,-0.40
2018-02-15T10:29:09.183Z,-0.30
2018-02-15T10:30:11.900Z,-0.20
2018-02-15T10:31:14.567Z,-0.10
2018-02-15T10:32:17.475Z,-0.10
2018-02-15T10:33:20.199Z,0.00
2018-02-15T10:34:23.051Z,0.00
2018-02-15T10:35:25.727Z,0.00
2018-02-15T10:36:28.670Z,0.10
2018-02-15T10:37:31.396Z,0.00
2018-02-15T10:38:34.227Z,0.10
2018-02-15T10:39:36.994Z,0.10
2018-02-15T10:40:40.159Z,0.10
2018-02-15T10:41:43.624Z,0.10
2018-02-15T10:42:46.382Z,0.10
2018-02-15T10:43:50.538Z,0.20
2018-02-15T10:44:53.339Z,0.20
2018-02-15T10:45:56.714Z,0.20
2018-02-15T10:47:00.987Z,0.00
2018-02-15T10:48:04.430Z,0.00
2018-02-15T10:49:07.371Z,0.00
2018-02-15T10:50:10.812Z,0.00
2018-02-15T10:51:13.559Z,-0.10
2018-02-15T10:52:17.455Z,0.00
2018-02-15T10:53:20.270Z,0.00
2018-02-15T10:54:23.370Z,0.10
2018-02-15T10:55:26.025Z,0.10
2018-02-15T10:56:28.700Z,0.20
2018-02-15T10:57:32.280Z,0.20
2018-02-15T10:58:35.113Z,0.30
2018-02-15T10:59:38.114Z,0.40
2018-02-15T11:00:46.345Z,0.40
2018-02-15T11:01:49.584Z,0.40
2018-02-15T11:02:57.977Z,0.50
2018-02-15T11:04:04.896Z,0.60
2018-02-15T11:05:13.226Z,0.60
2018-02-15T11:06:16.485Z,0.60
2018-02-15T11:07:19.133Z,0.70
2018-02-15T11:08:21.824Z,0.80
2018-02-15T11:09:24.462Z,0.90
2018-02-15T11:10:27.973Z,0.90
2018-02-15T11:11:30.638Z,0.90
2018-02-15T11:12:33.321Z,0.90
2018-02-15T11:13:36.082Z,0.90
2018-02-15T11:14:39.657Z,0.80
2018-02-15T11:15:43.180Z,0.80
2018-02-15T11:16:46.854Z,0.90
2018-02-15T11:17:49.566Z,0.80
2018-02-15T11:18:53.324Z,0.80
2018-02-15T11:19:56.348Z,0.80
2018-02-15T11:20:59.797Z,0.90
2018-02-15T11:22:03.251Z,1.00
2018-02-15T11:23:06.778Z,1.00
2018-02-15T11:24:10.119Z,1.00
2018-02-15T11:25:12.976Z,1.10
2018-02-15T11:26:16.502Z,1.10
2018-02-15T11:27:19.169Z,1.10
2018-02-15T11:28:21.874Z,1.10
2018-02-15T11:29:25.292Z,1.00
2018-02-15T11:30:28.210Z,0.90
2018-02-15T11:31:30.880Z,0.90
2018-02-15T11:32:34.361Z,0.80
2018-02-15T11:33:37.150Z,0.90
2018-02-15T11:34:39.914Z,0.90
2018-02-15T11:35:42.839Z,0.90
2018-02-15T11:36:46.976Z,0.80
2018-02-15T11:37:49.818Z,0.80
2018-02-15T11:38:52.542Z,0.80
2018-02-15T11:39:56.172Z,0.80
2018-02-15T11:40:58.933Z,0.90
2018-02-15T11:42:02.356Z,1.00
2018-02-15T11:43:05.758Z,1.00
2018-02-15T11:44:08.425Z,1.00
2018-02-15T11:45:11.894Z,1.00
2018-02-15T11:46:14.544Z,1.00
2018-02-15T11:47:17.999Z,1.10
2018-02-15T11:48:20.738Z,1.10
2018-02-15T11:49:24.483Z,1.10
2018-02-15T11:50:27.486Z,1.20
2018-02-15T11:51:30.156Z,1.20
2018-02-15T11:52:32.882Z,1.10
2018-02-15T11:53:35.822Z,1.20
2018-02-15T11:54:38.492Z,1.30
2018-02-15T11:55:41.299Z,1.40
2018-02-15T11:56:44.112Z,1.50
2018-02-15T11:57:47.636Z,1.40
2018-02-15T11:58:50.392Z,1.40
2018-02-15T11:59:54.066Z,1.40
2018-02-15T12:00:57.519Z,1.30
2018-02-15T12:02:00.295Z,1.30
2018-02-15T12:03:03.047Z,1.20
2018-02-15T12:04:06.497Z,1.20
2018-02-15T12:05:09.168Z,1.20
2018-02-15T12:06:13.195Z,1.30
2018-02-15T12:07:16.317Z,1.20
2018-02-15T12:08:20.118Z,1.10
2018-02-15T12:09:22.814Z,1.10
2018-02-15T12:10:25.619Z,1.20
2018-02-15T12:11:28.297Z,1.20
2018-02-15T12:12:31.767Z,1.30
2018-02-15T12:13:35.143Z,1.30
2018-02-15T12:14:38.389Z,1.30
2018-02-15T12:15:42.062Z,1.40
2018-02-15T12:16:44.793Z,1.40
2018-02-15T12:17:47.525Z,1.40
2018-02-15T12:18:50.384Z,1.40
2018-02-15T12:19:53.698Z,1.40
2018-02-15T12:20:56.675Z,1.50
2018-02-15T12:21:59.343Z,1.50
2018-02-15T12:23:02.097Z,1.60
2018-02-15T12:24:05.602Z,1.70
2018-02-15T12:25:08.372Z,1.70
2018-02-15T12:26:11.065Z,1.80
2018-02-15T12:27:14.451Z,1.90
2018-02-15T12:28:17.154Z,1.90
2018-02-15T12:29:19.926Z,1.80
2018-02-15T12:30:22.638Z,1.80
2018-02-15T12:31:26.161Z,1.80
2018-02-15T12:32:28.936Z,1.80
2018-02-15T12:33:31.932Z,1.80
2018-02-15T12:34:35.397Z,1.90
2018-02-15T12:35:39.227Z,1.90
2018-02-15T12:36:41.887Z,1.90
2018-02-15T12:37:45.331Z,1.90
2018-02-15T12:38:48.144Z,1.90
2018-02-15T12:39:51.172Z,2.10
2018-02-15T12:40:54.043Z,2.10
2018-02-15T12:41:56.962Z,2.00
2018-02-15T12:43:00.507Z,2.00
2018-02-15T12:44:03.717Z,2.00
2018-02-15T12:45:07.230Z,2.00
2018-02-15T12:46:09.717Z,2.00
2018-02-15T12:47:12.956Z,2.00
2018-02-15T12:48:15.414Z,2.00
2018-02-15T12:49:17.883Z,2.10
2018-02-15T12:50:20.362Z,2.10
2018-02-15T12:51:22.873Z,2.10
2018-02-15T12:52:26.135Z,2.20
2018-02-15T12:53:28.647Z,2.10
2018-02-15T12:54:31.117Z,2.20
2018-02-15T12:55:33.604Z,2.10
2018-02-15T12:56:36.094Z,2.10
2018-02-15T12:57:38.664Z,2.10
2018-02-15T12:58:41.155Z,2.20
2018-02-15T12:59:44.373Z,2.00
2018-02-15T13:00:47.054Z,2.00
2018-02-15T13:01:49.552Z,2.00
2018-02-15T13:02:52.805Z,2.00
2018-02-15T13:03:56.078Z,2.00
2018-02-15T13:04:58.587Z,2.00
2018-02-15T13:06:01.265Z,2.00
2018-02-15T13:07:03.755Z,1.90
2018-02-15T13:08:06.228Z,1.90
2018-02-15T13:09:09.200Z,1.80
2018-02-15T13:10:11.773Z,1.90
2018-02-15T13:11:14.222Z,1.90
2018-02-15T13:12:28.698Z,1.90
2018-02-15T13:13:31.281Z,2.00
2018-02-15T13:14:33.811Z,2.00
2018-02-15T13:15:48.141Z,2.00
2018-02-15T13:16:57.482Z,2.10
2018-02-15T13:17:59.951Z,2.10
2018-02-15T13:19:14.354Z,2.10
2018-02-15T13:20:18.739Z,2.10
2018-02-15T13:21:21.299Z,2.00
2018-02-15T13:22:35.792Z,2.00
2018-02-15T13:23:39.020Z,2.10
2018-02-15T13:24:42.377Z,2.10
2018-02-15T13:25:44.869Z,2.10
2018-02-15T13:26:47.429Z,2.10
2018-02-15T13:28:01.734Z,2.10
2018-02-15T13:29:04.208Z,2.10
2018-02-15T13:30:07.253Z,2.20
2018-02-15T13:31:09.767Z,2.20
2018-02-15T13:32:12.250Z,2.20
2018-02-15T13:33:14.800Z,2.30
2018-02-15T13:34:17.314Z,2.30
2018-02-15T13:35:19.802Z,2.40
2018-02-15T13:36:23.145Z,2.40
2018-02-15T13:37:26.527Z,2.30
2018-02-15T13:38:29.068Z,2.30